createdAt,value
2022-10-02T00:03:16.061Z,11.84
2022-10-02T00:08:40.606Z,11.70
2022-10-02T00:14:05.562Z,11.50
2022-10-02T00:19:27.606Z,11.56
2022-10-02T00:25:12.674Z,11.61
2022-10-02T00:30:51.621Z,11.45
2022-10-02T00:36:45.213Z,11.19
2022-10-02T00:42:30.000Z,11.40
2022-10-02T00:47:56.066Z,11.46
2022-10-02T00:53:39.602Z,11.59
2022-10-02T00:59:26.872Z,11.57
2022-10-02T01:04:48.688Z,11.61
2022-10-02T01:10:12.472Z,11.44
2022-10-02T01:15:43.664Z,11.57
2022-10-02T01:21:14.236Z,11.54
2022-10-02T01:26:36.348Z,11.56
2022-10-02T01:31:58.516Z,11.63
2022-10-02T01:37:22.823Z,11.65
2022-10-02T01:42:44.683Z,11.55
2022-10-02T01:48:17.155Z,11.75
2022-10-02T01:54:02.437Z,11.68
2022-10-02T01:59:30.938Z,11.71
2022-10-02T02:05:00.148Z,11.72
2022-10-02T02:10:41.796Z,11.62
2022-10-02T02:16:18.750Z,11.68
2022-10-02T02:21:46.956Z,11.69
2022-10-02T02:27:14.682Z,11.64
2022-10-02T02:32:40.236Z,11.60
2022-10-02T02:38:20.362Z,11.69
2022-10-02T02:43:55.479Z,11.61
2022-10-02T02:49:17.468Z,11.56
2022-10-02T02:54:46.275Z,11.58
2022-10-02T03:00:08.409Z,11.48
2022-10-02T03:05:32.042Z,11.40
2022-10-02T03:11:11.763Z,11.46
2022-10-02T03:16:57.931Z,11.45
2022-10-02T03:22:43.508Z,11.30
2022-10-02T03:28:08.285Z,11.37
2022-10-02T03:33:31.515Z,11.37
2022-10-02T03:39:23.031Z,11.48
2022-10-02T03:44:38.715Z,11.40
2022-10-02T03:50:00.505Z,11.60
2022-10-02T03:55:39.509Z,11.61
2022-10-02T04:01:17.002Z,11.65
2022-10-02T04:06:46.228Z,11.67
2022-10-02T04:12:13.985Z,11.71
2022-10-02T04:17:44.069Z,11.80
2022-10-02T04:23:20.292Z,11.84
2022-10-02T04:28:48.098Z,11.72
2022-10-02T04:34:13.688Z,11.87
2022-10-02T04:39:52.165Z,11.81
2022-10-02T04:45:22.999Z,11.88
2022-10-02T04:50:56.668Z,11.78
2022-10-02T04:56:43.092Z,11.87
2022-10-02T05:02:15.243Z,11.80
2022-10-02T05:07:58.468Z,11.89
2022-10-02T05:13:46.715Z,11.91
2022-10-02T05:19:23.269Z,12.15
2022-10-02T05:25:03.738Z,11.72
2022-10-02T05:30:32.870Z,12.10
2022-10-02T05:36:07.069Z,12.15
2022-10-02T05:41:56.012Z,12.19
2022-10-02T05:47:29.468Z,12.37
2022-10-02T05:53:00.641Z,12.43
2022-10-02T05:58:38.060Z,12.46
2022-10-02T06:04:06.240Z,12.48
2022-10-02T06:09:33.259Z,12.43
2022-10-02T06:15:07.269Z,12.50
2022-10-02T06:20:38.821Z,12.51
2022-10-02T06:26:06.885Z,12.78
2022-10-02T06:31:38.223Z,12.80
2022-10-02T06:37:23.075Z,12.74
2022-10-02T06:43:04.271Z,12.89
2022-10-02T06:48:35.145Z,13.07
2022-10-02T06:54:09.331Z,13.22
2022-10-02T07:00:05.121Z,13.47
2022-10-02T07:05:48.017Z,13.31
2022-10-02T07:11:35.937Z,13.46
2022-10-02T07:17:24.870Z,13.51
2022-10-02T07:23:14.669Z,13.41
2022-10-02T07:29:06.711Z,13.33
2022-10-02T07:34:49.306Z,13.66
2022-10-02T07:40:34.116Z,13.82
2022-10-02T07:46:34.699Z,14.35
2022-10-02T07:52:03.528Z,14.62
2022-10-02T07:57:31.476Z,14.96
2022-10-02T08:02:56.903Z,14.55
2022-10-02T08:08:30.399Z,14.59
2022-10-02T08:14:16.849Z,14.10
2022-10-02T08:19:45.272Z,13.88
2022-10-02T08:25:20.627Z,14.43
2022-10-02T08:30:42.417Z,14.28
2022-10-02T08:36:22.712Z,14.32
2022-10-02T08:42:22.144Z,14.34
2022-10-02T08:47:52.948Z,14.23
2022-10-02T08:53:33.078Z,14.75
2022-10-02T08:59:07.358Z,15.12
2022-10-02T09:05:13.291Z,15.58
2022-10-02T09:11:02.674Z,15.60
2022-10-02T09:16:46.895Z,16.99
2022-10-02T09:22:53.630Z,18.66
2022-10-02T09:28:25.996Z,18.75
2022-10-02T09:34:06.396Z,17.37
2022-10-02T09:39:57.102Z,16.85
2022-10-02T09:45:37.518Z,17.61
2022-10-02T09:51:02.170Z,20.65
2022-10-02T09:56:58.084Z,21.29
2022-10-02T10:02:57.149Z,20.45
2022-10-02T10:08:57.290Z,19.80
2022-10-02T10:14:52.716Z,19.48
2022-10-02T10:20:34.789Z,19.17
2022-10-02T10:26:40.235Z,19.04
2022-10-02T10:32:02.069Z,19.68
2022-10-02T10:37:39.188Z,18.85
2022-10-02T10:43:28.260Z,17.98
2022-10-02T10:49:22.132Z,18.81
2022-10-02T10:54:43.830Z,18.85
2022-10-02T11:00:19.792Z,18.68
2022-10-02T11:06:13.350Z,17.71
2022-10-02T11:11:56.841Z,16.65
2022-10-02T11:17:37.283Z,15.79
2022-10-02T11:23:09.491Z,16.25
2022-10-02T11:28:33.964Z,16.34
2022-10-02T11:34:17.677Z,16.44
2022-10-02T11:40:12.609Z,16.85
2022-10-02T11:45:43.287Z,17.19
2022-10-02T11:51:17.133Z,17.05
2022-10-02T11:56:47.965Z,17.41
2022-10-02T12:02:28.977Z,17.62
2022-10-02T12:08:20.438Z,17.34
2022-10-02T12:14:11.961Z,17.20
2022-10-02T12:20:06.599Z,16.99
2022-10-02T12:25:43.447Z,16.44
2022-10-02T12:31:23.637Z,16.29
2022-10-02T12:37:08.034Z,16.10
2022-10-02T12:42:48.491Z,16.35
2022-10-02T12:48:36.705Z,16.16
2022-10-02T12:54:22.589Z,16.41
2022-10-02T12:59:54.269Z,16.14
2022-10-02T13:05:24.849Z,16.16
2022-10-02T13:11:00.225Z,15.83
2022-10-02T13:16:44.758Z,16.25
2022-10-02T13:22:24.791Z,16.34
2022-10-02T13:27:55.613Z,16.42
2022-10-02T13:33:29.387Z,16.47
2022-10-02T13:38:54.127Z,16.27
2022-10-02T13:44:43.221Z,16.09
2022-10-02T13:50:17.810Z,15.93
2022-10-02T13:55:54.087Z,15.84
2022-10-02T14:01:30.476Z,15.95
2022-10-02T14:06:58.943Z,15.31
2022-10-02T14:12:37.745Z,16.24
2022-10-02T14:18:18.257Z,16.33
2022-10-02T14:23:46.024Z,15.99
2022-10-02T14:29:26.574Z,15.87
2022-10-02T14:35:13.391Z,16.24
2022-10-02T14:41:16.879Z,16.21
2022-10-02T14:47:03.316Z,16.77
2022-10-02T14:52:43.735Z,15.73
2022-10-02T14:58:30.008Z,15.97
2022-10-02T15:04:13.565Z,15.78
2022-10-02T15:10:21.156Z,15.47
2022-10-02T15:16:21.309Z,15.18
2022-10-02T15:21:57.661Z,15.07
2022-10-02T15:27:30.478Z,14.80
2022-10-02T15:33:01.368Z,14.76
2022-10-02T15:38:32.290Z,14.60
2022-10-02T15:44:28.049Z,14.27
2022-10-02T15:50:13.501Z,13.89
2022-10-02T15:55:50.156Z,13.75
2022-10-02T16:01:46.148Z,13.60
2022-10-02T16:07:24.922Z,13.52
2022-10-02T16:13:01.766Z,13.36
2022-10-02T16:18:43.610Z,13.33
2022-10-02T16:24:18.765Z,13.19
2022-10-02T16:30:12.215Z,12.99
2022-10-02T16:35:43.502Z,12.95
2022-10-02T16:41:20.425Z,12.84
2022-10-02T16:46:47.804Z,12.78
2022-10-02T16:52:46.952Z,12.66
2022-10-02T16:58:14.648Z,12.53
2022-10-02T17:03:56.740Z,12.50
2022-10-02T17:09:57.900Z,12.31
2022-10-02T17:15:32.138Z,12.32
2022-10-02T17:21:07.520Z,12.30
2022-10-02T17:26:40.760Z,12.27
2022-10-02T17:32:02.814Z,12.19
2022-10-02T17:38:06.952Z,12.20
2022-10-02T17:43:42.092Z,12.22
2022-10-02T17:49:09.920Z,12.18
2022-10-02T17:55:01.134Z,12.16
2022-10-02T18:00:23.482Z,12.21
2022-10-02T18:06:13.730Z,12.17
2022-10-02T18:12:13.284Z,12.16
2022-10-02T18:17:44.574Z,12.09
2022-10-02T18:23:48.000Z,11.92
2022-10-02T18:29:49.250Z,11.92
2022-10-02T18:35:36.036Z,11.96
2022-10-02T18:41:07.768Z,11.97
2022-10-02T18:46:32.255Z,12.03
2022-10-02T18:52:12.812Z,11.97
2022-10-02T18:57:53.130Z,12.03
2022-10-02T19:03:43.031Z,12.07
2022-10-02T19:09:07.808Z,12.12
2022-10-02T19:14:37.621Z,12.22
2022-10-02T19:19:59.432Z,12.21
2022-10-02T19:25:21.334Z,12.25
2022-10-02T19:30:48.020Z,12.29
2022-10-02T19:36:14.854Z,12.02
2022-10-02T19:41:43.049Z,12.49
2022-10-02T19:47:15.234Z,12.51
2022-10-02T19:52:42.967Z,12.45
2022-10-02T19:58:22.535Z,12.37
2022-10-02T20:03:45.079Z,12.11
2022-10-02T20:09:21.249Z,12.02
2022-10-02T20:14:51.522Z,11.83
2022-10-02T20:20:14.732Z,11.82
2022-10-02T20:25:42.631Z,11.63
2022-10-02T20:31:11.346Z,11.61
2022-10-02T20:36:37.394Z,11.47
2022-10-02T20:42:05.745Z,11.39
2022-10-02T20:47:51.203Z,11.37
2022-10-02T20:53:50.565Z,11.26
2022-10-02T20:59:34.263Z,11.21
2022-10-02T21:05:05.186Z,11.25
2022-10-02T21:10:54.649Z,11.27
2022-10-02T21:16:32.661Z,11.14
2022-10-02T21:22:13.191Z,11.24
2022-10-02T21:28:07.449Z,11.14
2022-10-02T21:33:37.565Z,11.15
2022-10-02T21:39:21.387Z,11.11
2022-10-02T21:45:22.401Z,10.94
2022-10-02T21:51:03.104Z,10.82
2022-10-02T21:56:38.471Z,10.85
2022-10-02T22:02:37.326Z,10.64
2022-10-02T22:08:32.240Z,10.53
2022-10-02T22:13:58.266Z,10.50
2022-10-02T22:19:34.962Z,10.38
2022-10-02T22:25:15.197Z,10.06
2022-10-02T22:31:11.249Z,10.48
2022-10-02T22:36:51.937Z,10.49
2022-10-02T22:42:20.757Z,10.67
2022-10-02T22:47:53.966Z,10.57
2022-10-02T22:53:44.211Z,10.64
2022-10-02T22:59:22.845Z,10.67
2022-10-02T23:05:06.127Z,10.63
2022-10-02T23:10:34.347Z,10.68
2022-10-02T23:16:06.538Z,10.65
2022-10-02T23:21:52.763Z,10.57
2022-10-02T23:27:34.885Z,10.60
2022-10-02T23:33:02.555Z,10.71
2022-10-02T23:38:28.323Z,10.69
2022-10-02T23:44:14.377Z,10.65
2022-10-02T23:49:41.266Z,10.69
2022-10-02T23:55:17.418Z,10.76
